createdAt,value
2018-12-08T00:02:33.595Z,5.23
2018-12-08T00:06:45.684Z,4.87
2018-12-08T00:10:57.784Z,4.43
2018-12-08T00:15:09.973Z,4.60
2018-12-08T00:19:22.093Z,4.70
2018-12-08T00:23:34.152Z,5.07
2018-12-08T00:27:46.351Z,5.07
2018-12-08T00:31:58.332Z,4.13
2018-12-08T00:36:10.327Z,5.13
2018-12-08T00:40:22.433Z,4.83
2018-12-08T00:44:34.548Z,4.60
2018-12-08T00:48:46.656Z,5.00
2018-12-08T00:52:58.804Z,5.33
2018-12-08T00:57:10.775Z,4.70
2018-12-08T01:01:22.888Z,4.03
2018-12-08T01:05:35.072Z,3.83
2018-12-08T01:09:47.188Z,3.70
2018-12-08T01:13:59.408Z,4.97
2018-12-08T01:18:11.524Z,4.17
2018-12-08T01:22:23.831Z,3.73
2018-12-08T01:26:36.123Z,4.83
2018-12-08T01:30:48.048Z,3.93
2018-12-08T01:35:00.047Z,4.47
2018-12-08T01:39:12.247Z,3.57
2018-12-08T01:43:23.796Z,3.60
2018-12-08T01:47:35.508Z,4.10
2018-12-08T01:51:47.263Z,3.53
2018-12-08T01:55:59.265Z,3.57
2018-12-08T02:00:11.427Z,4.40
2018-12-08T02:04:23.475Z,3.67
2018-12-08T02:08:35.815Z,3.03
2018-12-08T02:12:47.699Z,3.60
2018-12-08T02:16:59.699Z,4.03
2018-12-08T02:21:11.811Z,4.10
2018-12-08T02:25:23.876Z,5.23
2018-12-08T02:29:35.963Z,4.50
2018-12-08T02:33:48.040Z,4.43
2018-12-08T02:37:59.931Z,4.83
2018-12-08T02:42:12.703Z,5.20
2018-12-08T02:46:24.704Z,5.93
2018-12-08T02:50:36.502Z,4.33
2018-12-08T02:54:48.267Z,4.47
2018-12-08T02:59:00.268Z,3.80
2018-12-08T03:03:12.391Z,4.47
2018-12-08T03:07:24.408Z,5.00
2018-12-08T03:11:36.441Z,4.17
2018-12-08T03:15:48.403Z,5.30
2018-12-08T03:20:00.599Z,4.13
2018-12-08T03:24:12.511Z,4.63
2018-12-08T03:28:24.145Z,4.70
2018-12-08T03:32:35.970Z,5.13
2018-12-08T03:36:47.752Z,5.30
2018-12-08T03:41:01.038Z,5.90
2018-12-08T03:45:13.065Z,4.90
2018-12-08T03:49:25.164Z,5.70
2018-12-08T03:53:36.801Z,5.73
2018-12-08T03:57:48.511Z,5.47
2018-12-08T04:02:00.380Z,6.10
2018-12-08T04:06:12.491Z,4.97
2018-12-08T04:10:24.323Z,5.93
2018-12-08T04:14:36.327Z,6.83
2018-12-08T04:18:48.357Z,6.27
2018-12-08T04:23:00.386Z,5.90
2018-12-08T04:27:12.482Z,6.90
2018-12-08T04:31:24.515Z,5.80
2018-12-08T04:35:36.837Z,5.33
2018-12-08T04:39:48.725Z,4.67
2018-12-08T04:44:00.636Z,6.33
2018-12-08T04:48:12.638Z,4.90
2018-12-08T04:52:24.729Z,5.87
2018-12-08T04:56:36.361Z,5.53
2018-12-08T05:00:48.173Z,4.47
2018-12-08T05:05:00.090Z,4.33
2018-12-08T05:09:12.390Z,5.50
2018-12-08T05:13:24.344Z,5.57
2018-12-08T05:17:36.063Z,6.53
2018-12-08T05:21:48.066Z,5.07
2018-12-08T05:26:00.064Z,5.73
2018-12-08T05:30:12.169Z,6.40
2018-12-08T05:34:24.290Z,5.43
2018-12-08T05:38:36.387Z,5.73
2018-12-08T05:42:48.642Z,6.10
2018-12-08T05:47:00.661Z,5.30
2018-12-08T05:51:12.859Z,5.60
2018-12-08T05:55:24.819Z,5.20
2018-12-08T05:59:36.830Z,5.00
2018-12-08T06:03:48.965Z,5.57
2018-12-08T06:08:00.945Z,5.27
2018-12-08T06:12:13.643Z,5.83
2018-12-08T06:16:25.359Z,5.83
2018-12-08T06:20:37.487Z,5.13
2018-12-08T06:24:49.588Z,6.43
2018-12-08T06:29:01.503Z,6.57
2018-12-08T06:33:13.762Z,6.03
2018-12-08T06:37:26.566Z,5.17
2018-12-08T06:41:38.371Z,5.60
2018-12-08T06:45:50.135Z,5.43
2018-12-08T06:50:02.357Z,4.57
2018-12-08T06:54:14.367Z,4.57
2018-12-08T06:58:26.491Z,5.00
2018-12-08T07:02:38.745Z,5.43
2018-12-08T07:06:50.571Z,5.23
2018-12-08T07:11:02.683Z,4.83
2018-12-08T07:15:14.895Z,5.00
2018-12-08T07:19:26.887Z,4.30
2018-12-08T07:23:38.903Z,3.80
2018-12-08T07:27:50.951Z,4.80
2018-12-08T07:32:03.054Z,5.03
2018-12-08T07:36:15.018Z,4.57
2018-12-08T07:40:27.122Z,4.87
2018-12-08T07:44:39.087Z,5.37
2018-12-08T07:48:51.167Z,4.70
2018-12-08T07:53:04.408Z,5.57
2018-12-08T07:57:17.016Z,5.87
2018-12-08T08:01:29.030Z,4.43
2018-12-08T08:05:40.912Z,4.93
2018-12-08T08:09:53.019Z,4.47
2018-12-08T08:14:05.159Z,5.23
2018-12-08T08:18:17.240Z,5.47
2018-12-08T08:22:29.332Z,5.53
2018-12-08T08:26:41.444Z,4.83
2018-12-08T08:30:53.659Z,5.97
2018-12-08T08:35:05.931Z,5.77
2018-12-08T08:39:17.966Z,5.90
2018-12-08T08:43:30.280Z,5.73
2018-12-08T08:47:42.335Z,5.70
2018-12-08T08:51:54.416Z,5.87
2018-12-08T08:56:06.451Z,4.97
2018-12-08T09:00:19.704Z,5.93
2018-12-08T09:04:31.435Z,5.93
2018-12-08T09:08:43.490Z,6.40
2018-12-08T09:12:55.772Z,4.73
2018-12-08T09:17:07.512Z,5.93
2018-12-08T09:21:19.399Z,5.97
2018-12-08T09:25:31.315Z,5.07
2018-12-08T09:29:43.265Z,5.40
2018-12-08T09:33:55.449Z,6.37
2018-12-08T09:38:07.496Z,4.93
2018-12-08T09:42:19.686Z,6.23
2018-12-08T09:46:31.787Z,5.13
2018-12-08T09:50:43.438Z,7.10
2018-12-08T09:54:55.260Z,4.73
2018-12-08T09:59:07.052Z,6.73
2018-12-08T10:03:18.969Z,4.83
2018-12-08T10:07:32.747Z,5.63
2018-12-08T10:11:44.801Z,5.43
2018-12-08T10:15:56.850Z,5.43
2018-12-08T10:20:08.905Z,5.77
2018-12-08T10:24:20.846Z,5.37
2018-12-08T10:28:32.803Z,5.70
2018-12-08T10:32:44.966Z,5.07
2018-12-08T10:36:56.983Z,6.00
2018-12-08T10:41:09.343Z,6.30
2018-12-08T10:45:21.334Z,6.50
2018-12-08T10:49:33.432Z,6.87
2018-12-08T10:53:46.056Z,5.97
2018-12-08T10:57:57.959Z,6.83
2018-12-08T11:02:14.197Z,6.93
2018-12-08T11:06:26.158Z,6.33
2018-12-08T11:10:38.367Z,6.93
2018-12-08T11:14:50.479Z,7.73
2018-12-08T11:19:04.681Z,6.97
2018-12-08T11:23:16.785Z,6.93
2018-12-08T11:27:29.184Z,7.77
2018-12-08T11:31:40.928Z,6.20
2018-12-08T11:35:52.702Z,7.37
2018-12-08T11:40:04.778Z,7.53
2018-12-08T11:44:16.812Z,7.17
2018-12-08T11:48:28.528Z,7.17
2018-12-08T11:52:40.498Z,7.53
2018-12-08T11:56:52.499Z,8.10
2018-12-08T12:01:04.765Z,8.40
2018-12-08T12:05:16.839Z,7.37
2018-12-08T12:09:28.911Z,7.67
2018-12-08T12:13:41.019Z,7.77
2018-12-08T12:17:53.111Z,8.37
2018-12-08T12:22:05.223Z,7.13
2018-12-08T12:26:17.244Z,7.50
2018-12-08T12:30:30.024Z,7.73
2018-12-08T12:34:41.771Z,7.87
2018-12-08T12:38:53.856Z,6.97
2018-12-08T12:43:06.155Z,8.17
2018-12-08T12:47:18.312Z,6.30
2018-12-08T12:51:30.342Z,6.10
2018-12-08T12:55:42.507Z,6.67
2018-12-08T12:59:54.427Z,6.37
2018-12-08T13:04:06.322Z,7.37
2018-12-08T13:08:18.451Z,6.70
2018-12-08T13:12:30.677Z,6.17
2018-12-08T13:16:42.647Z,5.90
2018-12-08T13:20:54.860Z,5.50
2018-12-08T13:25:16.851Z,5.70
2018-12-08T13:29:28.711Z,6.00
2018-12-08T13:33:40.611Z,6.03
2018-12-08T13:37:52.514Z,5.70
2018-12-08T13:42:04.876Z,5.93
2018-12-08T13:46:16.857Z,6.33
2018-12-08T13:50:28.858Z,5.90
2018-12-08T13:54:47.757Z,5.47
2018-12-08T13:58:59.568Z,5.10
2018-12-08T14:03:11.436Z,5.53
2018-12-08T14:07:23.140Z,5.53
2018-12-08T14:11:35.116Z,5.40
2018-12-08T14:15:47.222Z,4.93
2018-12-08T14:20:06.113Z,5.03
2018-12-08T14:24:17.979Z,6.10
2018-12-08T14:28:30.139Z,5.90
2018-12-08T14:32:42.000Z,5.07
2018-12-08T14:36:54.013Z,4.47
2018-12-08T14:41:06.155Z,5.37
2018-12-08T14:45:18.520Z,4.93
2018-12-08T14:49:30.842Z,5.37
2018-12-08T14:53:43.318Z,4.30
2018-12-08T14:57:55.499Z,4.93
2018-12-08T15:02:06.901Z,5.00
2018-12-08T15:06:18.904Z,4.33
2018-12-08T15:10:30.846Z,4.67
2018-12-08T15:14:43.083Z,5.07
2018-12-08T15:18:55.163Z,5.70
2018-12-08T15:23:07.154Z,5.40
2018-12-08T15:27:19.295Z,5.50
2018-12-08T15:31:31.312Z,6.37
2018-12-08T15:35:43.314Z,7.87
2018-12-08T15:39:55.510Z,7.53
2018-12-08T15:44:07.637Z,7.87
2018-12-08T15:48:19.791Z,9.03
2018-12-08T15:52:31.940Z,8.60
2018-12-08T15:56:43.952Z,9.13
2018-12-08T16:00:56.131Z,8.63
2018-12-08T16:05:08.448Z,8.53
2018-12-08T16:09:20.386Z,9.57
2018-12-08T16:13:32.471Z,8.50
2018-12-08T16:17:44.742Z,8.70
2018-12-08T16:21:56.537Z,9.93
2018-12-08T16:26:08.423Z,8.23
2018-12-08T16:30:20.523Z,10.10
2018-12-08T16:34:32.644Z,10.27
2018-12-08T16:38:44.715Z,8.77
2018-12-08T16:42:56.735Z,8.63
2018-12-08T16:47:08.912Z,9.57
2018-12-08T16:51:21.060Z,9.17
2018-12-08T16:55:33.065Z,8.57
2018-12-08T16:59:45.174Z,9.53
2018-12-08T17:03:57.282Z,10.50
2018-12-08T17:08:09.285Z,10.23
2018-12-08T17:12:21.499Z,9.90
2018-12-08T17:16:33.595Z,9.87
2018-12-08T17:20:45.992Z,9.50
2018-12-08T17:24:58.051Z,9.57
2018-12-08T17:29:09.961Z,10.30
2018-12-08T17:33:22.323Z,10.43
2018-12-08T17:37:34.279Z,10.17
2018-12-08T17:41:46.268Z,10.30
2018-12-08T17:45:58.267Z,10.67
2018-12-08T17:50:10.650Z,9.73
2018-12-08T17:54:22.578Z,11.27
2018-12-08T17:58:34.613Z,10.77
2018-12-08T18:02:46.678Z,11.10
2018-12-08T18:06:58.765Z,10.37
2018-12-08T18:11:10.811Z,9.87
2018-12-08T18:15:22.923Z,12.20
2018-12-08T18:19:35.019Z,12.17
2018-12-08T18:23:47.064Z,12.23
2018-12-08T18:27:59.099Z,11.93
2018-12-08T18:32:11.048Z,11.00
2018-12-08T18:36:23.160Z,11.27
2018-12-08T18:40:35.163Z,10.90
2018-12-08T18:44:47.063Z,10.70
2018-12-08T18:48:59.175Z,11.17
2018-12-08T18:53:11.332Z,11.07
2018-12-08T18:57:23.418Z,11.27
2018-12-08T19:01:35.435Z,10.90
2018-12-08T19:05:47.451Z,10.30
2018-12-08T19:09:59.512Z,11.33
2018-12-08T19:14:11.613Z,10.70
2018-12-08T19:18:23.820Z,11.03
2018-12-08T19:22:35.982Z,10.77
2018-12-08T19:26:48.099Z,10.97
2018-12-08T19:31:00.145Z,11.47
2018-12-08T19:35:12.258Z,11.17
2018-12-08T19:39:24.517Z,11.43
2018-12-08T19:43:36.467Z,12.33
2018-12-08T19:47:48.481Z,11.80
2018-12-08T19:52:00.591Z,11.53
2018-12-08T19:56:12.694Z,11.00
2018-12-08T20:00:24.860Z,11.53
2018-12-08T20:04:36.916Z,11.50
2018-12-08T20:08:48.924Z,11.67
2018-12-08T20:13:01.108Z,13.73
2018-12-08T20:17:12.676Z,11.73
2018-12-08T20:21:24.384Z,12.30
2018-12-08T20:25:36.131Z,12.23
2018-12-08T20:29:48.234Z,13.13
2018-12-08T20:34:00.252Z,11.57
2018-12-08T20:38:12.337Z,13.00
2018-12-08T20:42:24.495Z,12.97
2018-12-08T20:46:38.026Z,12.03
2018-12-08T20:50:50.859Z,13.87
2018-12-08T20:55:02.756Z,11.53
2018-12-08T20:59:14.516Z,12.70
2018-12-08T21:03:26.540Z,12.67
2018-12-08T21:07:38.531Z,11.80
2018-12-08T21:11:50.659Z,11.03
2018-12-08T21:16:02.665Z,11.30
2018-12-08T21:20:14.666Z,12.80
2018-12-08T21:24:26.746Z,12.07
2018-12-08T21:28:38.864Z,11.53
2018-12-08T21:32:51.070Z,12.37
2018-12-08T21:37:03.279Z,12.20
2018-12-08T21:41:15.407Z,12.93
2018-12-08T21:45:27.758Z,10.80
2018-12-08T21:49:39.717Z,12.37
2018-12-08T21:53:51.810Z,11.53
2018-12-08T21:58:03.942Z,11.00
2018-12-08T22:02:15.952Z,12.47
2018-12-08T22:06:28.039Z,11.80
2018-12-08T22:10:40.210Z,13.27
2018-12-08T22:14:57.103Z,12.63
2018-12-08T22:19:08.982Z,11.43
2018-12-08T22:23:20.999Z,10.33
2018-12-08T22:27:33.101Z,12.30
2018-12-08T22:31:45.337Z,12.10
2018-12-08T22:35:57.554Z,12.10
2018-12-08T22:40:09.811Z,12.83
2018-12-08T22:44:22.218Z,12.43
2018-12-08T22:48:34.098Z,12.90
2018-12-08T22:52:46.091Z,13.17
2018-12-08T22:56:57.976Z,12.30
2018-12-08T23:01:09.997Z,12.37
2018-12-08T23:05:21.915Z,12.47
2018-12-08T23:09:33.908Z,10.80
2018-12-08T23:13:45.897Z,11.20
2018-12-08T23:17:57.816Z,10.33
2018-12-08T23:22:09.791Z,10.93
2018-12-08T23:26:20.956Z,10.90
2018-12-08T23:30:32.775Z,9.90
2018-12-08T23:34:44.676Z,9.77
2018-12-08T23:38:56.835Z,9.90
2018-12-08T23:43:08.938Z,9.77
2018-12-08T23:47:21.034Z,9.77
2018-12-08T23:51:33.128Z,9.93
2018-12-08T23:55:45.220Z,11.00
2018-12-08T23:59:57.302Z,10.57
